Time;durP1;ratioP1;P1;durP2;ratioP2;P2;SDS_P1;SDS_P2;PMS_P1;PMS_P2;Temp;Humidity;BMP_temperature;BMP_pressure;BME280_temperature;BME280_humidity;BME280_pressure;Samples;Min_cycle;Max_cycle;Signal;HPM_P1;HPM_P2
2023/02/22 00:00:21;;;;;;;8.10;6.10;;;;;;;9.33;51.39;96109.75;4971191;28;20429;-71
2023/02/22 00:02:51;;;;;;;8.77;6.17;;;;;;;9.04;52.21;96110.16;4971463;28;20409;-69
2023/02/22 00:05:19;;;;;;;8.63;7.10;;;;;;;9.11;52.33;96104.56;4971219;28;20413;-71
2023/02/22 00:07:48;;;;;;;6.17;5.57;;;;;;;9.11;52.30;96109.81;4970925;28;20412;-68
2023/02/22 00:10:19;;;;;;;6.70;6.00;;;;;;;9.03;53.04;96106.69;4969656;28;20855;-70
2023/02/22 00:12:45;;;;;;;7.90;6.40;;;;;;;8.98;53.29;96108.66;4970983;28;20451;-70
2023/02/22 00:15:13;;;;;;;8.67;6.33;;;;;;;8.90;53.67;96108.09;4971052;28;20811;-70
2023/02/22 00:17:38;;;;;;;9.13;6.30;;;;;;;8.93;53.41;96112.34;4970863;28;20894;-70
2023/02/22 00:20:07;;;;;;;10.40;7.30;;;;;;;8.81;53.49;96101.50;4972081;28;20429;-70
2023/02/22 00:22:33;;;;;;;7.73;6.77;;;;;;;8.73;54.28;96105.34;4971224;28;20186;-70
2023/02/22 00:24:58;;;;;;;11.10;6.17;;;;;;;8.67;54.22;96099.47;4971193;28;20503;-70
2023/02/22 00:27:24;;;;;;;9.50;6.90;;;;;;;8.69;53.44;96102.88;4970781;28;20212;-71
2023/02/22 00:29:49;;;;;;;10.57;7.07;;;;;;;8.71;54.39;96108.03;4968859;28;20345;-69
2023/02/22 00:32:15;;;;;;;8.33;6.33;;;;;;;8.58;54.51;96101.59;4951673;28;20178;-68
2023/02/22 00:34:42;;;;;;;11.23;7.60;;;;;;;8.56;54.40;96096.44;4951632;28;20174;-70
2023/02/22 00:37:09;;;;;;;11.70;7.03;;;;;;;8.35;54.31;96105.09;4951225;28;20181;-71
2023/02/22 00:39:35;;;;;;;11.20;6.30;;;;;;;8.42;53.95;96099.59;4951606;28;20917;-70
2023/02/22 00:42:00;;;;;;;8.53;6.70;;;;;;;8.51;55.01;96102.78;4951233;28;20418;-70
2023/02/22 00:44:26;;;;;;;8.70;7.47;;;;;;;8.49;54.30;96102.81;4951343;28;20186;-71
2023/02/22 00:46:51;;;;;;;10.93;8.93;;;;;;;8.27;54.84;96102.81;4949915;28;20217;-69
2023/02/22 00:49:17;;;;;;;9.93;6.90;;;;;;;7.72;56.67;96113.59;4950648;28;20206;-69
2023/02/22 00:51:43;;;;;;;11.97;10.23;;;;;;;7.87;56.00;96111.34;4951366;28;20182;-69
2023/02/22 00:54:09;;;;;;;9.40;7.33;;;;;;;7.91;56.58;96105.06;4951347;29;20202;-71
2023/02/22 00:56:36;;;;;;;7.50;6.47;;;;;;;8.16;55.08;96102.38;4951008;28;20543;-70
2023/02/22 00:59:02;;;;;;;7.87;6.07;;;;;;;8.00;56.01;96100.34;4951408;28;20453;-69
2023/02/22 01:01:28;;;;;;;9.73;6.70;;;;;;;8.03;55.42;96105.47;4951050;28;20437;-70
2023/02/22 01:03:54;;;;;;;8.93;6.83;;;;;;;8.18;55.35;96105.78;4951137;28;20834;-71
2023/02/22 01:06:20;;;;;;;12.60;7.57;;;;;;;7.95;55.83;96104.03;4950815;28;20421;-70
2023/02/22 01:08:47;;;;;;;11.10;7.50;;;;;;;8.04;55.56;96095.84;4950847;28;20209;-70
2023/02/22 01:11:15;;;;;;;13.33;7.80;;;;;;;8.09;55.35;96101.75;4950972;28;20488;-70
2023/02/22 01:13:40;;;;;;;9.23;6.20;;;;;;;8.11;55.35;96104.31;4950819;28;20448;-69
2023/02/22 01:16:08;;;;;;;7.40;6.17;;;;;;;8.27;55.16;96094.97;4950509;28;20418;-70
2023/02/22 01:18:35;;;;;;;13.10;6.87;;;;;;;8.21;55.05;96098.66;4950516;28;20818;-69
2023/02/22 01:21:01;;;;;;;10.70;6.80;;;;;;;8.31;54.64;96095.69;4950591;28;20442;-70
2023/02/22 01:23:26;;;;;;;14.27;7.10;;;;;;;8.36;54.46;96094.59;4950659;28;20717;-69
2023/02/22 01:25:52;;;;;;;10.87;6.80;;;;;;;8.30;54.70;96086.16;4950305;28;20418;-70
2023/02/22 01:28:17;;;;;;;12.77;7.30;;;;;;;8.24;55.12;96085.47;4950295;28;20684;-69
2023/02/22 01:30:43;;;;;;;9.30;6.30;;;;;;;8.14;55.23;96084.13;4959409;28;20204;-69
2023/02/22 01:33:09;;;;;;;8.47;6.90;;;;;;;8.15;55.20;96080.63;4969582;28;20276;-69
2023/02/22 01:35:39;;;;;;;8.17;5.63;;;;;;;8.21;54.62;96085.59;4969593;28;20181;-69
2023/02/22 01:38:05;;;;;;;10.93;6.47;;;;;;;8.20;55.15;96088.28;4969501;28;20607;-69
2023/02/22 01:40:35;;;;;;;15.70;7.10;;;;;;;8.11;54.50;96092.09;4969444;28;20539;-69
2023/02/22 01:43:04;;;;;;;8.63;6.30;;;;;;;8.08;54.66;96084.38;4969625;28;21217;-70
2023/02/22 01:45:29;;;;;;;8.97;6.13;;;;;;;8.18;54.12;96090.09;4967049;28;20463;-70
2023/02/22 01:48:10;;;;;;;8.23;6.43;;;;;;;8.04;54.34;96085.41;4969054;28;20453;-70
2023/02/22 01:50:46;;;;;;;7.03;6.33;;;;;;;7.97;55.42;96094.41;4972692;28;20223;-70
2023/02/22 01:53:16;;;;;;;7.50;5.60;;;;;;;8.01;54.62;96085.53;4982964;28;20470;-70
2023/02/22 01:55:43;;;;;;;9.23;6.50;;;;;;;7.90;55.07;96085.94;4965234;28;20420;-70
2023/02/22 01:58:09;;;;;;;8.30;5.90;;;;;;;7.80;55.40;96090.66;4968916;28;20425;-70
2023/02/22 02:00:35;;;;;;;7.37;6.00;;;;;;;7.97;55.46;96092.63;4969287;28;20578;-69
2023/02/22 02:03:14;;;;;;;9.00;6.57;;;;;;;8.07;54.81;96082.66;4968995;28;20420;-68
2023/02/22 02:05:41;;;;;;;6.10;5.23;;;;;;;7.95;55.02;96080.53;4969074;28;20413;-70
2023/02/22 02:08:29;;;;;;;10.40;6.80;;;;;;;7.81;55.55;96074.06;4968717;28;20458;-69
2023/02/22 02:10:56;;;;;;;9.10;5.60;;;;;;;7.76;55.42;96075.16;4969142;28;20523;-71
2023/02/22 02:13:24;;;;;;;10.07;6.27;;;;;;;7.81;55.32;96070.59;4969032;28;20427;-70
2023/02/22 02:15:53;;;;;;;7.00;6.30;;;;;;;7.18;57.22;96071.19;4958486;28;20533;-69
2023/02/22 02:18:19;;;;;;;13.80;6.37;;;;;;;7.25;57.54;96073.56;4949213;28;20414;-69
2023/02/22 02:20:54;;;;;;;9.30;5.53;;;;;;;7.12;57.34;96075.78;4949632;28;20441;-68
2023/02/22 02:23:43;;;;;;;7.30;5.47;;;;;;;7.49;56.50;96069.19;4949732;28;20526;-70
2023/02/22 02:26:26;;;;;;;9.20;6.23;;;;;;;7.45;56.61;96070.25;4949069;28;20945;-68
2023/02/22 02:29:28;;;;;;;7.50;6.70;;;;;;;7.43;56.56;96058.06;4949415;29;20469;-70
2023/02/22 02:32:21;;;;;;;7.50;6.23;;;;;;;7.38;57.28;96054.78;4969012;28;20435;-69
2023/02/22 02:35:16;;;;;;;10.90;6.10;;;;;;;7.30;57.41;96054.25;4968637;28;20882;-69
2023/02/22 02:38:06;;;;;;;6.93;5.53;;;;;;;7.26;57.50;96052.63;4967432;28;20902;-69
2023/02/22 02:40:42;;;;;;;8.27;5.70;;;;;;;7.30;57.29;96053.34;4968536;28;20918;-71
2023/02/22 02:43:31;;;;;;;8.20;6.13;;;;;;;7.36;56.90;96043.56;4968584;28;20432;-69
2023/02/22 02:46:30;;;;;;;6.30;5.20;;;;;;;7.27;56.99;96041.28;4966808;28;20448;-70
2023/02/22 02:49:04;;;;;;;9.13;6.00;;;;;;;7.32;56.91;96041.97;4967392;28;20496;-70
2023/02/22 02:51:35;;;;;;;7.03;5.10;;;;;;;7.20;57.42;96037.19;4968056;28;20436;-70
2023/02/22 02:54:02;;;;;;;10.90;6.00;;;;;;;7.20;57.08;96029.34;4968527;28;20508;-70
2023/02/22 02:56:28;;;;;;;6.73;5.50;;;;;;;7.18;57.07;96032.03;4968160;28;20416;-70
2023/02/22 02:58:54;;;;;;;6.93;5.17;;;;;;;7.12;57.24;96027.03;4968637;28;20421;-69
2023/02/22 03:01:29;;;;;;;11.10;5.60;;;;;;;7.04;57.42;96026.47;4968169;28;20482;-70
2023/02/22 03:04:06;;;;;;;12.50;5.43;;;;;;;7.00;57.85;96017.03;4966696;28;20219;-68
2023/02/22 03:06:59;;;;;;;6.43;4.90;;;;;;;6.91;58.07;96010.38;4968023;28;20460;-70
2023/02/22 03:09:33;;;;;;;9.13;5.57;;;;;;;6.98;58.08;96011.88;4967811;28;20544;-70
2023/02/22 03:12:21;;;;;;;7.47;6.40;;;;;;;6.84;59.15;96019.34;4967297;28;20413;-71
2023/02/22 03:14:57;;;;;;;14.83;6.30;;;;;;;7.05;58.52;96020.34;4967953;28;21139;-69
2023/02/22 03:17:35;;;;;;;7.90;5.20;;;;;;;6.97;58.55;96012.78;4967802;28;20421;-69
2023/02/22 03:20:08;;;;;;;7.50;5.30;;;;;;;7.03;58.36;96021.31;4967795;28;20515;-69
2023/02/22 03:22:46;;;;;;;6.20;5.17;;;;;;;6.84;58.72;96018.50;4967776;28;20891;-70
2023/02/22 03:25:34;;;;;;;8.60;5.70;;;;;;;6.81;58.77;96016.84;4967367;28;20974;-70
2023/02/22 03:28:05;;;;;;;5.00;4.50;;;;;;;6.70;59.18;96008.53;4967640;28;20461;-69
2023/02/22 03:31:14;;;;;;;7.00;5.93;;;;;;;6.21;61.02;96011.06;4967728;28;20444;-70
2023/02/22 03:33:48;;;;;;;7.97;5.10;;;;;;;6.05;61.40;96015.94;4984490;28;20420;-69
2023/02/22 03:36:21;;;;;;;7.93;6.53;;;;;;;6.09;61.20;96012.31;4984368;28;20419;-69
2023/02/22 03:38:48;;;;;;;6.77;5.20;;;;;;;6.37;60.00;96008.78;4974268;28;20911;-69
2023/02/22 03:41:17;;;;;;;7.30;4.77;;;;;;;6.67;59.10;96006.91;4967642;28;20445;-70
2023/02/22 03:43:48;;;;;;;6.27;5.03;;;;;;;6.70;58.66;96011.16;4967670;28;20424;-69
2023/02/22 03:46:14;;;;;;;9.80;5.67;;;;;;;6.67;58.69;96009.50;4967426;28;20503;-69
2023/02/22 03:49:19;;;;;;;7.37;5.50;;;;;;;6.42;59.49;96006.88;4967947;28;20452;-69
2023/02/22 03:51:44;;;;;;;6.53;5.77;;;;;;;6.32;60.07;96008.09;4981916;28;20423;-69
2023/02/22 03:54:15;;;;;;;7.07;5.50;;;;;;;6.32;60.33;96019.38;4967457;28;20425;-68
2023/02/22 03:56:53;;;;;;;5.60;5.10;;;;;;;6.43;59.56;96011.22;4967298;28;20412;-68
2023/02/22 03:59:24;;;;;;;9.03;5.33;;;;;;;6.57;59.20;96005.53;4967447;28;20427;-68
2023/02/22 04:01:50;;;;;;;8.30;6.10;;;;;;;6.33;60.05;96012.41;4967422;28;20424;-69
2023/02/22 04:04:17;;;;;;;10.27;7.00;;;;;;;6.41;59.63;96010.41;4967419;28;20417;-70
2023/02/22 04:06:43;;;;;;;8.47;5.70;;;;;;;6.48;59.26;96001.47;4967089;28;20468;-69
2023/02/22 04:09:09;;;;;;;9.43;6.37;;;;;;;6.49;59.00;96018.78;4967423;28;20472;-68
2023/02/22 04:11:34;;;;;;;8.70;6.20;;;;;;;6.49;58.80;96010.13;4967288;28;20437;-69
2023/02/22 04:14:00;;;;;;;10.53;6.20;;;;;;;6.31;59.30;96020.28;4967458;28;20182;-69
2023/02/22 04:16:25;;;;;;;7.87;6.97;;;;;;;6.14;59.69;96012.16;4967232;28;20184;-69
2023/02/22 04:18:51;;;;;;;8.03;6.30;;;;;;;5.80;60.73;96009.75;4967340;28;20929;-69
2023/02/22 04:21:16;;;;;;;10.20;6.43;;;;;;;5.94;60.46;95998.03;4967738;28;20234;-68
2023/02/22 04:23:41;;;;;;;7.23;6.00;;;;;;;5.76;60.51;96001.19;4970985;28;21067;-68
2023/02/22 04:26:07;;;;;;;12.90;6.17;;;;;;;5.98;60.10;96004.00;4970774;28;20177;-70
2023/02/22 04:28:32;;;;;;;7.87;6.17;;;;;;;5.87;60.25;96004.31;4971194;28;20573;-70
2023/02/22 04:30:58;;;;;;;9.73;5.83;;;;;;;5.96;60.18;96007.56;4960634;28;20201;-69
2023/02/22 04:33:23;;;;;;;7.97;5.80;;;;;;;5.98;59.80;96006.59;4952623;28;20174;-70
2023/02/22 04:35:50;;;;;;;7.87;6.47;;;;;;;6.27;59.06;96010.00;4952754;28;20170;-69
2023/02/22 04:38:15;;;;;;;10.50;5.80;;;;;;;6.31;58.61;96022.88;4951773;28;20214;-68
2023/02/22 04:40:41;;;;;;;18.70;6.40;;;;;;;6.35;58.85;96015.81;4960881;28;20520;-70
2023/02/22 04:43:06;;;;;;;9.30;7.40;;;;;;;6.38;58.99;96025.28;4955582;28;20827;-69
2023/02/22 04:45:32;;;;;;;11.40;7.20;;;;;;;6.40;58.96;96018.25;4953854;28;20185;-70
2023/02/22 04:47:57;;;;;;;6.13;5.53;;;;;;;6.42;58.96;96006.88;4951739;28;20185;-68
2023/02/22 04:50:23;;;;;;;11.53;6.07;;;;;;;6.34;59.54;96006.31;4950956;28;20186;-68
2023/02/22 04:52:48;;;;;;;9.87;6.50;;;;;;;6.42;59.58;96000.81;4951224;28;20182;-69
2023/02/22 04:55:15;;;;;;;18.27;8.03;;;;;;;6.40;60.18;95998.25;4951195;28;20517;-68
2023/02/22 04:57:40;;;;;;;10.90;7.47;;;;;;;6.40;59.73;95997.41;4950739;28;20182;-68
2023/02/22 05:00:09;;;;;;;12.63;8.97;;;;;;;6.30;59.94;95996.88;4950978;28;20453;-69
2023/02/22 05:02:37;;;;;;;16.27;8.27;;;;;;;6.34;60.63;95994.13;4951102;28;20170;-69
2023/02/22 05:05:03;;;;;;;16.00;7.60;;;;;;;6.22;60.58;95996.28;4950901;28;20824;-69
2023/02/22 05:07:29;;;;;;;16.83;8.80;;;;;;;6.28;60.14;95993.47;4950574;28;20457;-69
2023/02/22 05:09:54;;;;;;;12.00;7.60;;;;;;;6.24;60.64;95991.88;4950617;28;20465;-69
2023/02/22 05:12:20;;;;;;;29.90;9.70;;;;;;;6.28;60.34;95983.91;4950668;28;20806;-69
2023/02/22 05:14:45;;;;;;;14.60;9.23;;;;;;;6.41;59.86;95984.34;4950459;28;20261;-69
2023/02/22 05:17:11;;;;;;;15.47;10.43;;;;;;;6.41;60.25;95986.94;4950291;28;20171;-69
2023/02/22 05:19:36;;;;;;;29.03;9.90;;;;;;;6.47;60.10;95986.75;4950200;29;20163;-69
2023/02/22 05:22:04;;;;;;;11.30;7.73;;;;;;;6.32;59.85;95984.66;4950521;28;20192;-69
2023/02/22 05:24:30;;;;;;;15.10;8.40;;;;;;;6.17;60.49;95993.00;4950562;28;20166;-70
2023/02/22 05:26:55;;;;;;;13.93;8.67;;;;;;;6.29;60.54;95989.97;4949992;28;20437;-69
2023/02/22 05:29:21;;;;;;;10.13;7.80;;;;;;;6.25;59.90;95994.41;4950350;28;20210;-70
2023/02/22 05:31:46;;;;;;;21.93;9.70;;;;;;;6.22;60.49;95985.88;4967802;28;20243;-69
2023/02/22 05:34:13;;;;;;;14.20;8.17;;;;;;;6.20;60.30;95985.06;4968963;28;20224;-70
2023/02/22 05:36:38;;;;;;;12.13;7.73;;;;;;;6.23;59.88;95979.75;4968108;28;20747;-69
2023/02/22 05:39:04;;;;;;;24.23;9.90;;;;;;;6.09;60.08;95985.41;4969615;28;20504;-70
2023/02/22 05:41:29;;;;;;;10.60;7.60;;;;;;;6.12;60.30;95982.72;4969607;28;20197;-70
2023/02/22 05:43:55;;;;;;;18.77;9.67;;;;;;;6.10;60.82;95974.94;4969575;28;20169;-70
2023/02/22 05:46:20;;;;;;;18.63;8.30;;;;;;;6.03;60.48;95977.81;4969327;28;20638;-71
2023/02/22 05:48:46;;;;;;;16.10;8.63;;;;;;;6.14;60.09;95970.47;4969410;28;20201;-71
2023/02/22 05:51:11;;;;;;;11.10;7.60;;;;;;;5.96;60.23;95977.16;4968020;28;20201;-70
2023/02/22 05:53:37;;;;;;;30.37;9.27;;;;;;;5.95;60.40;95975.44;4969288;28;20195;-70
2023/02/22 05:56:02;;;;;;;21.37;8.70;;;;;;;6.02;60.57;95976.94;4968748;28;20177;-69
2023/02/22 05:58:28;;;;;;;16.83;8.60;;;;;;;6.07;59.78;95968.97;4969186;28;20174;-69
2023/02/22 06:00:53;;;;;;;16.03;8.70;;;;;;;6.19;60.17;95970.31;4969179;28;20252;-69
2023/02/22 06:03:19;;;;;;;16.13;8.20;;;;;;;6.20;59.77;95967.66;4969009;28;20699;-69
2023/02/22 06:05:44;;;;;;;12.40;8.43;;;;;;;6.34;59.44;95975.88;4969254;28;20173;-69
2023/02/22 06:08:10;;;;;;;11.10;7.30;;;;;;;6.26;58.99;95971.81;4968888;28;20508;-69
2023/02/22 06:10:35;;;;;;;43.80;9.93;;;;;;;6.19;59.33;95970.31;4968832;28;20201;-68
2023/02/22 06:13:01;;;;;;;34.03;10.40;;;;;;;6.28;59.13;95977.81;4969122;28;20548;-70
2023/02/22 06:15:28;;;;;;;25.83;9.17;;;;;;;6.21;59.53;95976.34;4968861;28;20185;-68
2023/02/22 06:17:55;;;;;;;10.77;7.50;;;;;;;6.15;59.36;95977.41;4968575;28;20409;-69
2023/02/22 06:20:22;;;;;;;12.27;7.67;;;;;;;6.23;59.59;95979.75;4969003;28;21118;-70
2023/02/22 06:22:49;;;;;;;330.13;39.53;;;;;;;6.26;59.53;95979.63;4969072;28;20580;-70
2023/02/22 06:25:17;;;;;;;48.93;11.43;;;;;;;6.23;59.60;95982.34;4967493;28;20441;-70
2023/02/22 06:27:43;;;;;;;10.80;6.53;;;;;;;6.57;58.50;95984.66;4965624;28;20464;-70
2023/02/22 06:30:10;;;;;;;23.47;9.27;;;;;;;6.67;58.16;95982.59;4965728;28;20552;-70
2023/02/22 06:32:36;;;;;;;16.73;7.73;;;;;;;6.73;58.06;95992.78;4968456;28;20248;-69
2023/02/22 06:35:01;;;;;;;9.63;5.87;;;;;;;6.73;57.79;95990.19;4968412;28;20511;-71
2023/02/22 06:37:27;;;;;;;13.97;7.27;;;;;;;6.65;58.27;95984.41;4968328;28;20271;-69
2023/02/22 06:39:52;;;;;;;13.17;7.10;;;;;;;6.88;57.84;95997.47;4966785;28;20204;-69
2023/02/22 06:42:18;;;;;;;8.03;6.17;;;;;;;7.24;56.43;95997.03;4967374;28;20212;-69
2023/02/22 06:44:43;;;;;;;16.80;7.00;;;;;;;7.79;53.97;95988.84;4968517;28;20272;-69
2023/02/22 06:47:09;;;;;;;11.23;8.07;;;;;;;7.94;53.21;95987.41;4967809;28;20209;-69
2023/02/22 06:49:34;;;;;;;13.20;8.10;;;;;;;8.77;50.63;95992.66;4968212;28;20194;-69
2023/02/22 06:51:59;;;;;;;14.20;9.03;;;;;;;9.31;49.23;95987.66;4968195;28;20174;-70
2023/02/22 06:54:26;;;;;;;12.67;7.90;;;;;;;10.21;46.68;95976.47;4968224;28;20174;-69
2023/02/22 06:56:51;;;;;;;14.40;8.87;;;;;;;10.44;45.83;95980.56;4966627;28;21022;-71
2023/02/22 06:59:17;;;;;;;15.80;8.10;;;;;;;10.84;45.08;95987.25;4968413;28;20425;-70
2023/02/22 07:01:42;;;;;;;14.03;9.50;;;;;;;10.56;45.23;95986.06;4987602;28;20768;-70
2023/02/22 07:04:08;;;;;;;11.80;8.40;;;;;;;11.01;44.18;95979.38;4987665;28;20185;-69
2023/02/22 07:06:33;;;;;;;11.80;10.07;;;;;;;11.42;43.21;95983.34;4987313;28;20187;-69
2023/02/22 07:08:59;;;;;;;20.17;9.90;;;;;;;11.65;42.88;95990.84;4987819;28;20283;-70
2023/02/22 07:11:25;;;;;;;11.27;8.93;;;;;;;10.98;44.34;95978.69;4974388;28;20275;-71
2023/02/22 07:13:51;;;;;;;14.97;9.60;;;;;;;11.43;43.87;95982.41;4964911;28;20472;-70
2023/02/22 07:16:16;;;;;;;16.97;10.47;;;;;;;12.15;41.97;95975.84;4961395;28;20233;-71
2023/02/22 07:18:42;;;;;;;54.97;15.10;;;;;;;12.64;40.35;95977.44;4968207;28;20192;-71
2023/02/22 07:21:07;;;;;;;262.50;30.83;;;;;;;13.27;39.28;95971.00;4967830;28;20516;-71
2023/02/22 07:23:33;;;;;;;52.93;13.70;;;;;;;13.65;38.39;95973.91;4967618;28;20627;-71
2023/02/22 07:25:59;;;;;;;40.90;10.80;;;;;;;14.23;36.55;95971.13;4967706;28;20517;-70
2023/02/22 07:28:25;;;;;;;19.97;9.70;;;;;;;14.45;36.22;95966.13;4967075;28;20592;-70
2023/02/22 07:30:50;;;;;;;108.07;20.53;;;;;;;15.02;34.75;95976.41;4962785;28;20448;-69
2023/02/22 07:33:15;;;;;;;29.30;13.43;;;;;;;15.39;34.17;95971.19;4966585;28;20187;-70
2023/02/22 07:35:46;;;;;;;20.13;9.37;;;;;;;14.80;35.15;95974.34;4967107;28;20513;-70
2023/02/22 07:38:13;;;;;;;26.90;9.80;;;;;;;14.46;35.48;95965.19;4967323;28;20197;-70
2023/02/22 07:40:39;;;;;;;14.17;8.83;;;;;;;14.05;36.42;95975.81;4967296;28;20529;-71
2023/02/22 07:43:15;;;;;;;19.23;10.10;;;;;;;13.80;37.11;95972.09;4971684;28;20503;-69
2023/02/22 07:45:40;;;;;;;16.47;8.90;;;;;;;13.31;37.82;95970.75;4975483;28;20185;-69
2023/02/22 07:48:06;;;;;;;15.70;10.77;;;;;;;13.79;37.31;95967.75;4974067;28;20479;-71
2023/02/22 07:50:33;;;;;;;16.60;9.03;;;;;;;14.11;36.33;95965.69;4990302;28;20347;-70
2023/02/22 07:53:01;;;;;;;17.73;9.63;;;;;;;14.94;35.40;95962.84;4977134;28;20185;-69
2023/02/22 07:55:28;;;;;;;23.23;9.07;;;;;;;15.09;35.00;95960.13;4987885;28;20420;-69
2023/02/22 07:57:56;;;;;;;16.27;9.70;;;;;;;14.83;35.23;95965.38;4993171;28;20449;-70
2023/02/22 08:00:31;;;;;;;12.10;9.50;;;;;;;13.85;37.72;95963.91;4992838;28;20443;-69
2023/02/22 08:02:58;;;;;;;13.03;9.70;;;;;;;12.57;40.14;95974.31;4990372;28;20507;-69
2023/02/22 08:05:26;;;;;;;13.10;9.73;;;;;;;11.70;42.48;95981.88;4990713;28;20507;-71
2023/02/22 08:07:51;;;;;;;122.03;18.60;;;;;;;11.17;44.14;95976.81;4973965;28;20420;-71
2023/02/22 08:10:19;;;;;;;15.37;10.00;;;;;;;11.50;43.73;95968.00;4970964;28;20429;-69
2023/02/22 08:12:44;;;;;;;18.43;9.27;;;;;;;11.76;43.70;95971.00;4971490;28;20317;-70
2023/02/22 08:15:17;;;;;;;20.53;12.20;;;;;;;11.58;43.58;95972.88;4971019;28;20498;-70
2023/02/22 08:17:43;;;;;;;17.87;10.43;;;;;;;11.76;43.30;95961.31;4971073;28;20178;-70
2023/02/22 08:20:09;;;;;;;28.90;10.87;;;;;;;12.04;42.49;95960.66;4970904;28;20436;-69
2023/02/22 08:22:34;;;;;;;21.70;12.60;;;;;;;12.10;42.93;95962.09;4970949;28;20661;-68
2023/02/22 08:24:59;;;;;;;15.53;10.20;;;;;;;12.20;42.09;95959.78;4970747;28;20181;-69
2023/02/22 08:27:27;;;;;;;15.67;9.60;;;;;;;12.39;42.05;95963.03;4971017;28;20678;-70
2023/02/22 08:29:54;;;;;;;12.87;9.17;;;;;;;12.09;42.90;95970.91;4968676;28;20524;-70
2023/02/22 08:32:20;;;;;;;15.80;10.03;;;;;;;12.00;43.23;95968.81;4952345;28;20445;-70
2023/02/22 08:34:46;;;;;;;19.03;9.90;;;;;;;12.03;42.84;95961.59;4965290;28;21256;-70
2023/02/22 08:37:12;;;;;;;18.27;9.70;;;;;;;11.99;42.72;95969.75;4971712;28;20185;-72
2023/02/22 08:39:37;;;;;;;9.47;8.53;;;;;;;11.36;44.43;95970.53;4972124;28;20193;-69
2023/02/22 08:42:03;;;;;;;12.90;9.37;;;;;;;11.17;45.30;95971.56;4986943;28;20421;-69
2023/02/22 08:44:28;;;;;;;16.23;9.40;;;;;;;11.35;44.86;95971.47;4972064;28;20635;-69
2023/02/22 08:46:54;;;;;;;15.40;9.47;;;;;;;11.47;45.02;95969.97;4970904;28;20512;-69
2023/02/22 08:49:20;;;;;;;13.10;9.07;;;;;;;11.35;45.30;95966.22;4970447;28;20353;-70
2023/02/22 08:51:46;;;;;;;15.20;8.80;;;;;;;11.29;45.51;95963.91;4970917;28;20178;-66
2023/02/22 08:54:12;;;;;;;27.23;11.50;;;;;;;11.35;45.24;95964.44;4984962;28;20531;-67
2023/02/22 08:56:37;;;;;;;44.33;13.70;;;;;;;10.73;46.72;95969.47;4969780;28;20180;-67
2023/02/22 08:59:02;;;;;;;13.43;9.40;;;;;;;10.45;47.98;95972.63;4966257;28;20655;-67
2023/02/22 09:01:29;;;;;;;18.53;9.80;;;;;;;10.41;47.90;95967.63;4969897;28;20209;-67
2023/02/22 09:03:57;;;;;;;16.73;9.33;;;;;;;10.22;48.81;95971.13;4970246;28;20200;-66
2023/02/22 09:06:23;;;;;;;17.03;9.37;;;;;;;10.46;48.18;95970.84;4982295;28;20449;-66
2023/02/22 09:08:48;;;;;;;13.37;10.03;;;;;;;10.49;48.29;95963.69;4968130;28;20469;-70
2023/02/22 09:11:14;;;;;;;14.83;9.20;;;;;;;10.64;47.94;95966.47;4968228;28;20206;-73
2023/02/22 09:13:39;;;;;;;15.63;9.60;;;;;;;11.60;47.63;95956.09;4968407;28;20181;-72
2023/02/22 09:16:05;;;;;;;17.27;8.90;;;;;;;11.15;47.47;95955.03;4967073;28;20494;-71
2023/02/22 09:18:31;;;;;;;15.00;9.60;;;;;;;10.91;47.31;95959.75;4963598;28;20264;-69
2023/02/22 09:20:57;;;;;;;14.17;9.77;;;;;;;10.97;47.56;95963.88;4969828;28;20202;-70
2023/02/22 09:23:23;;;;;;;15.47;9.80;;;;;;;10.75;48.25;95958.88;4969980;28;20560;-72
2023/02/22 09:25:49;;;;;;;10.93;9.20;;;;;;;10.84;48.19;95960.16;4954309;28;20422;-73
2023/02/22 09:28:15;;;;;;;11.33;9.93;;;;;;;10.94;48.15;95957.00;4950113;28;20226;-67
2023/02/22 09:30:41;;;;;;;11.10;9.20;;;;;;;10.90;48.36;95954.63;4958615;28;20436;-67
2023/02/22 09:33:13;;;;;;;14.10;9.13;;;;;;;10.75;48.93;95946.59;4956404;28;20752;-66
2023/02/22 09:35:45;;;;;;;13.77;10.30;;;;;;;10.92;48.71;95948.34;4950262;28;20509;-67
2023/02/22 09:38:12;;;;;;;12.00;9.93;;;;;;;11.08;48.16;95948.41;4949760;28;20426;-67
2023/02/22 09:40:44;;;;;;;16.07;10.30;;;;;;;11.42;47.76;95946.56;4950005;28;20438;-66
2023/02/22 09:43:39;;;;;;;14.40;9.30;;;;;;;11.53;47.33;95935.50;4950011;29;20492;-66
2023/02/22 09:46:26;;;;;;;17.70;12.47;;;;;;;11.53;47.48;95941.59;4949812;28;20406;-67
2023/02/22 09:49:16;;;;;;;13.17;9.20;;;;;;;10.80;49.70;95939.34;4950101;28;20469;-66
2023/02/22 09:51:58;;;;;;;21.63;11.30;;;;;;;11.46;47.94;95940.22;4950612;28;20856;-68
2023/02/22 09:54:30;;;;;;;12.43;11.20;;;;;;;11.61;47.71;95936.75;4968538;28;20444;-68
2023/02/22 09:56:59;;;;;;;12.77;11.43;;;;;;;12.07;47.07;95936.84;4966420;28;20431;-66
2023/02/22 09:59:30;;;;;;;14.63;11.53;;;;;;;12.20;46.03;95928.22;4968773;28;20822;-68
2023/02/22 10:02:23;;;;;;;16.40;11.43;;;;;;;12.47;45.36;95931.00;4967407;28;20448;-66
2023/02/22 10:04:58;;;;;;;15.00;11.00;;;;;;;11.63;47.82;95934.03;4968538;28;20456;-68
2023/02/22 10:07:35;;;;;;;15.67;11.73;;;;;;;11.80;48.00;95938.34;4968564;28;20496;-67
2023/02/22 10:10:05;;;;;;;20.63;13.03;;;;;;;12.26;46.69;95931.34;4968337;28;20512;-67
2023/02/22 10:13:01;;;;;;;17.93;13.40;;;;;;;11.65;48.54;95933.03;4968059;28;20472;-67
2023/02/22 10:15:39;;;;;;;16.93;12.50;;;;;;;11.82;48.72;95923.34;4963287;28;20432;-67
2023/02/22 10:18:26;;;;;;;13.93;12.37;;;;;;;12.04;48.17;95925.63;4965054;28;20417;-67
2023/02/22 10:21:13;;;;;;;22.40;14.17;;;;;;;11.80;48.05;95920.78;4949090;28;20450;-67
2023/02/22 10:24:12;;;;;;;15.73;12.17;;;;;;;11.88;48.43;95922.16;4949271;28;20432;-67
2023/02/22 10:26:41;;;;;;;17.13;12.50;;;;;;;11.87;48.90;95910.81;4948998;28;21267;-67
2023/02/22 10:29:31;;;;;;;19.10;11.90;;;;;;;12.32;46.43;95909.09;4949167;28;20525;-67
2023/02/22 10:32:01;;;;;;;20.23;12.43;;;;;;;12.11;45.99;95903.28;4951158;28;20795;-67
2023/02/22 10:34:32;;;;;;;26.50;12.80;;;;;;;12.32;46.26;95909.09;4957598;28;20512;-67
2023/02/22 10:37:15;;;;;;;59.77;17.30;;;;;;;12.27;44.89;95905.88;4967017;28;20429;-67
2023/02/22 10:39:41;;;;;;;17.10;10.63;;;;;;;12.63;45.01;95907.28;4968741;28;20445;-67
2023/02/22 10:42:08;;;;;;;14.47;11.10;;;;;;;12.37;44.55;95900.94;4966403;28;20440;-67
2023/02/22 10:44:35;;;;;;;17.10;11.93;;;;;;;12.46;44.02;95906.50;4968279;28;20449;-66
2023/02/22 10:47:04;;;;;;;19.10;12.73;;;;;;;12.60;44.07;95907.47;4967052;28;20933;-66
2023/02/22 10:49:37;;;;;;;21.25;12.05;;;;;;;12.89;42.82;95901.25;4967410;28;20437;-66
2023/02/22 10:52:13;;;;;;;12.40;11.10;;;;;;;12.79;43.53;95897.50;4967591;28;20252;-66
2023/02/22 10:54:44;;;;;;;20.67;12.70;;;;;;;12.84;42.86;95895.44;4968467;28;21092;-67
2023/02/22 10:57:11;;;;;;;17.70;11.43;;;;;;;12.79;43.06;95894.88;4967025;28;20425;-66
2023/02/22 10:59:38;;;;;;;15.40;11.90;;;;;;;12.79;42.56;95894.88;4962139;28;20480;-66
2023/02/22 11:02:26;;;;;;;14.67;12.23;;;;;;;13.04;42.32;95888.97;4962435;28;20637;-67
2023/02/22 11:04:54;;;;;;;18.47;14.00;;;;;;;13.07;42.24;95894.03;4960829;28;20519;-68
2023/02/22 11:07:33;;;;;;;26.20;12.20;;;;;;;13.20;41.83;95882.72;4967213;28;20417;-66
2023/02/22 11:10:04;;;;;;;31.30;23.60;;;;;;;13.14;42.21;95884.81;4966748;28;20970;-66
2023/02/22 11:12:36;;;;;;;21.43;13.30;;;;;;;13.28;41.94;95878.72;4967549;28;20428;-68
2023/02/22 11:15:31;;;;;;;13.73;11.60;;;;;;;13.11;42.07;95886.81;4968336;28;20464;-66
2023/02/22 11:18:00;;;;;;;16.20;11.90;;;;;;;13.18;41.50;95879.34;4954813;28;20445;-66
2023/02/22 11:20:34;;;;;;;17.57;13.17;;;;;;;13.18;41.92;95871.44;4964971;28;20457;-66
2023/02/22 11:23:02;;;;;;;20.33;12.97;;;;;;;13.17;42.75;95861.84;4967108;28;20401;-66
2023/02/22 11:25:31;;;;;;;16.27;12.80;;;;;;;13.29;42.30;95864.56;4967397;28;20446;-66
2023/02/22 11:28:13;;;;;;;18.23;14.43;;;;;;;13.39;41.68;95856.94;4967025;28;20404;-66
2023/02/22 11:30:42;;;;;;;18.20;14.93;;;;;;;13.21;41.74;95855.44;4965885;28;20475;-67
2023/02/22 11:33:24;;;;;;;25.10;15.97;;;;;;;13.10;42.59;95848.22;4970481;28;20413;-68
2023/02/22 11:35:58;;;;;;;21.00;15.50;;;;;;;13.13;43.13;95845.38;4971711;28;20467;-67
2023/02/22 11:38:31;;;;;;;16.80;15.00;;;;;;;13.30;42.51;95839.94;4971297;28;20508;-69
2023/02/22 11:41:04;;;;;;;18.30;13.90;;;;;;;13.21;43.10;95840.47;4970624;28;20552;-67